createdAt,value
2019-04-06T00:01:53.777Z,68.53
2019-04-06T00:04:21.167Z,68.37
2019-04-06T00:06:48.559Z,68.34
2019-04-06T00:09:15.963Z,68.43
2019-04-06T00:11:43.357Z,68.35
2019-04-06T00:14:10.769Z,68.19
2019-04-06T00:16:38.162Z,68.30
2019-04-06T00:19:05.561Z,68.42
2019-04-06T00:21:32.973Z,68.38
2019-04-06T00:26:34.193Z,68.72
2019-04-06T00:29:01.604Z,68.73
2019-04-06T00:31:34.741Z,68.84
2019-04-06T00:34:02.150Z,69.03
2019-04-06T00:36:29.575Z,68.89
2019-04-06T00:38:56.962Z,68.91
2019-04-06T00:41:24.367Z,68.91
2019-04-06T00:43:51.776Z,69.10
2019-04-06T00:46:19.311Z,69.21
2019-04-06T00:48:46.712Z,69.21
2019-04-06T00:51:14.232Z,69.08
2019-04-06T00:53:41.568Z,68.95
2019-04-06T00:56:08.972Z,69.06
2019-04-06T00:58:37.486Z,69.19
2019-04-06T01:01:04.921Z,69.32
2019-04-06T01:03:32.411Z,69.24
2019-04-06T01:05:59.806Z,69.66
2019-04-06T01:08:28.026Z,69.19
2019-04-06T01:10:55.439Z,69.07
2019-04-06T01:13:22.843Z,69.04
2019-04-06T01:15:50.234Z,69.06
2019-04-06T01:18:17.632Z,69.07
2019-04-06T01:20:45.045Z,69.11
2019-04-06T01:23:12.451Z,69.03
2019-04-06T01:25:39.872Z,68.99
2019-04-06T01:28:07.293Z,68.95
2019-04-06T01:30:35.455Z,68.91
2019-04-06T01:33:02.839Z,68.99
2019-04-06T01:35:30.656Z,68.90
2019-04-06T01:37:58.065Z,68.71
2019-04-06T01:40:25.511Z,68.70
2019-04-06T01:42:52.956Z,68.68
2019-04-06T01:45:20.348Z,68.81
2019-04-06T01:47:47.869Z,68.79
2019-04-06T01:50:15.260Z,68.89
2019-04-06T01:52:42.655Z,68.81
2019-04-06T01:55:10.053Z,68.79
2019-04-06T01:57:37.499Z,68.77
2019-04-06T02:00:06.406Z,68.68
2019-04-06T02:02:33.809Z,68.95
2019-04-06T02:05:01.214Z,68.90
2019-04-06T02:07:28.648Z,68.95
2019-04-06T02:09:56.048Z,69.03
2019-04-06T02:12:23.447Z,69.31
2019-04-06T02:14:50.845Z,69.42
2019-04-06T02:17:18.274Z,69.45
2019-04-06T02:19:45.691Z,69.34
2019-04-06T02:22:13.078Z,69.29
2019-04-06T02:24:40.486Z,69.05
2019-04-06T02:27:07.903Z,68.83
2019-04-06T02:29:35.305Z,68.96
2019-04-06T02:32:08.226Z,69.27
2019-04-06T02:34:55.234Z,69.49
2019-04-06T02:37:28.235Z,69.06
2019-04-06T02:39:58.474Z,68.89
2019-04-06T02:42:26.435Z,68.68
2019-04-06T02:44:53.789Z,68.53
2019-04-06T02:47:21.183Z,68.33
2019-04-06T02:49:48.588Z,68.34
2019-04-06T02:52:15.992Z,68.36
2019-04-06T02:54:43.423Z,68.46
2019-04-06T02:57:10.850Z,68.52
2019-04-06T02:59:39.089Z,68.67
2019-04-06T03:02:06.488Z,68.72
2019-04-06T03:04:33.901Z,68.85
2019-04-06T03:07:01.303Z,69.21
2019-04-06T03:09:28.707Z,69.54
2019-04-06T03:11:56.209Z,69.83
2019-04-06T03:14:23.519Z,69.92
2019-04-06T03:16:50.912Z,70.01
2019-04-06T03:19:18.985Z,70.01
2019-04-06T03:21:46.389Z,70.01
2019-04-06T03:24:13.804Z,70.17
2019-04-06T03:26:41.213Z,70.45
2019-04-06T03:29:08.607Z,70.42
2019-04-06T03:31:36.014Z,70.53
2019-04-06T03:34:04.165Z,70.52
2019-04-06T03:36:31.419Z,70.53
2019-04-06T03:38:59.095Z,70.64
2019-04-06T03:41:26.344Z,70.62
2019-04-06T03:43:53.752Z,70.58
2019-04-06T03:46:21.147Z,70.48
2019-04-06T03:48:48.788Z,70.55
2019-04-06T03:51:16.014Z,70.58
2019-04-06T03:53:43.435Z,70.38
2019-04-06T03:56:10.817Z,70.36
2019-04-06T03:58:38.237Z,70.33
2019-04-06T04:01:05.761Z,70.30
2019-04-06T04:03:33.171Z,70.21
2019-04-06T04:06:00.569Z,70.36
2019-04-06T04:08:27.984Z,70.45
2019-04-06T04:10:56.097Z,70.43
2019-04-06T04:13:23.677Z,70.33
2019-04-06T04:15:51.113Z,70.26
2019-04-06T04:18:18.537Z,70.09
2019-04-06T04:20:46.172Z,70.08
2019-04-06T04:23:13.418Z,69.92
2019-04-06T04:25:40.972Z,70.20
2019-04-06T04:28:08.396Z,70.46
2019-04-06T04:30:35.713Z,70.53
2019-04-06T04:33:03.113Z,70.34
2019-04-06T04:35:30.509Z,70.27
2019-04-06T04:37:58.243Z,70.13
2019-04-06T04:40:25.660Z,70.04
2019-04-06T04:42:52.891Z,69.96
2019-04-06T04:45:20.319Z,69.81
2019-04-06T04:47:50.030Z,69.73
2019-04-06T04:50:15.357Z,69.53
2019-04-06T04:52:43.009Z,69.51
2019-04-06T04:55:10.234Z,69.38
2019-04-06T04:57:41.139Z,69.63
2019-04-06T05:00:05.140Z,69.73
2019-04-06T05:02:32.541Z,69.65
2019-04-06T05:04:59.958Z,69.46
2019-04-06T05:07:27.363Z,69.38
2019-04-06T05:09:54.803Z,69.39
2019-04-06T05:12:22.300Z,69.31
2019-04-06T05:14:56.176Z,69.17
2019-04-06T05:17:23.566Z,69.21
2019-04-06T05:19:50.989Z,69.22
2019-04-06T05:22:18.393Z,69.32
2019-04-06T05:24:45.808Z,69.38
2019-04-06T05:27:13.272Z,69.75
2019-04-06T05:29:40.693Z,70.35
2019-04-06T05:32:08.289Z,70.69
2019-04-06T05:34:35.533Z,70.75
2019-04-06T05:37:02.966Z,70.93
2019-04-06T05:39:30.359Z,70.61
2019-04-06T05:41:57.785Z,70.36
2019-04-06T05:44:25.173Z,70.39
2019-04-06T05:46:52.584Z,70.45
2019-04-06T05:49:19.988Z,70.69
2019-04-06T05:51:47.395Z,70.62
2019-04-06T05:54:14.789Z,70.60
2019-04-06T05:56:42.178Z,70.62
2019-04-06T05:59:10.247Z,70.51
2019-04-06T06:01:40.337Z,70.40
2019-04-06T06:04:04.451Z,70.47
2019-04-06T06:06:31.859Z,70.35
2019-04-06T06:08:59.287Z,70.10
2019-04-06T06:11:26.695Z,70.26
2019-04-06T06:13:54.119Z,70.61
2019-04-06T06:16:21.535Z,70.43
2019-04-06T06:18:48.939Z,70.14
2019-04-06T06:21:16.333Z,69.79
2019-04-06T06:23:43.735Z,69.51
2019-04-06T06:26:11.258Z,68.91
2019-04-06T06:28:38.567Z,68.40
2019-04-06T06:31:05.976Z,67.39
2019-04-06T06:33:33.383Z,66.49
2019-04-06T06:36:00.980Z,66.18
2019-04-06T06:38:28.383Z,66.04
2019-04-06T06:40:55.836Z,65.53
2019-04-06T06:43:23.394Z,65.89
2019-04-06T06:45:50.700Z,66.30
2019-04-06T06:48:18.103Z,65.63
2019-04-06T06:50:45.514Z,64.38
2019-04-06T06:53:12.934Z,63.41
2019-04-06T06:55:40.328Z,62.84
2019-04-06T06:58:07.775Z,63.36
2019-04-06T07:00:35.182Z,63.72
2019-04-06T07:03:02.601Z,63.45
2019-04-06T07:05:30.003Z,63.50
2019-04-06T07:07:57.402Z,63.62
2019-04-06T07:10:24.846Z,63.17
2019-04-06T07:12:52.223Z,63.24
2019-04-06T07:15:19.674Z,63.27
2019-04-06T07:17:47.137Z,63.47
2019-04-06T07:20:14.064Z,63.03
2019-04-06T07:22:41.478Z,62.27
2019-04-06T07:25:08.881Z,62.27
2019-04-06T07:27:36.288Z,62.64
2019-04-06T07:30:04.404Z,62.49
2019-04-06T07:32:31.812Z,62.36
2019-04-06T07:34:59.334Z,61.67
2019-04-06T07:37:26.614Z,61.42
2019-04-06T07:39:54.026Z,61.33
2019-04-06T07:42:21.488Z,61.77
2019-04-06T07:44:48.890Z,61.72
2019-04-06T07:47:16.278Z,61.26
2019-04-06T07:49:46.168Z,60.91
2019-04-06T07:52:11.428Z,60.78
2019-04-06T07:54:38.579Z,61.24
2019-04-06T07:57:05.986Z,62.06
2019-04-06T07:59:33.512Z,62.19
2019-04-06T08:02:00.915Z,61.38
2019-04-06T08:04:28.330Z,61.18
2019-04-06T08:06:55.806Z,61.02
2019-04-06T08:09:23.159Z,61.05
2019-04-06T08:11:50.582Z,61.18
2019-04-06T08:14:18.298Z,61.36
2019-04-06T08:16:45.470Z,62.02
2019-04-06T08:19:13.068Z,62.13
2019-04-06T08:21:40.415Z,62.08
2019-04-06T08:24:07.933Z,62.09
2019-04-06T08:26:35.320Z,62.18
2019-04-06T08:29:02.871Z,61.91
2019-04-06T08:31:30.168Z,61.26
2019-04-06T08:33:57.579Z,60.95
2019-04-06T08:36:24.998Z,60.12
2019-04-06T08:38:52.419Z,60.48
2019-04-06T08:41:19.816Z,61.31
2019-04-06T08:43:47.260Z,61.76
2019-04-06T08:46:14.663Z,62.39
2019-04-06T08:48:42.073Z,62.94
2019-04-06T08:51:09.557Z,63.57
2019-04-06T08:53:36.983Z,63.43
2019-04-06T08:56:04.458Z,63.73
2019-04-06T08:58:31.863Z,63.77
2019-04-06T09:00:59.662Z,64.04
2019-04-06T09:03:27.072Z,63.90
2019-04-06T09:05:55.107Z,63.73
2019-04-06T09:08:22.507Z,63.35
2019-04-06T09:10:49.926Z,62.73
2019-04-06T09:13:18.200Z,61.79
2019-04-06T09:15:45.759Z,61.35
2019-04-06T09:18:13.424Z,60.72
2019-04-06T09:20:40.819Z,59.98
2019-04-06T09:23:08.275Z,60.00
2019-04-06T09:25:35.874Z,59.32
2019-04-06T09:28:03.366Z,58.96
2019-04-06T09:30:30.699Z,58.49
2019-04-06T09:32:58.355Z,57.75
2019-04-06T09:35:25.536Z,57.22
2019-04-06T09:37:52.943Z,57.09
2019-04-06T09:40:20.369Z,57.05
2019-04-06T09:42:47.755Z,56.29
2019-04-06T09:48:11.737Z,56.05
2019-04-06T09:54:05.160Z,53.28
2019-04-06T09:56:27.536Z,52.45
2019-04-06T09:59:01.562Z,51.80
2019-04-06T10:04:22.015Z,50.43
2019-04-06T10:06:55.152Z,50.19
2019-04-06T10:09:23.570Z,51.26
2019-04-06T10:11:54.959Z,51.84
2019-04-06T10:14:24.882Z,52.03
2019-04-06T10:16:54.996Z,51.49
2019-04-06T10:19:32.665Z,51.03
2019-04-06T10:25:14.834Z,50.21
2019-04-06T10:27:42.264Z,50.20
2019-04-06T10:30:25.779Z,50.25
2019-04-06T10:32:54.407Z,49.12
2019-04-06T10:35:21.863Z,49.51
2019-04-06T10:38:04.321Z,49.83
2019-04-06T10:40:38.323Z,48.99
2019-04-06T10:43:11.071Z,48.80
2019-04-06T10:45:38.487Z,48.11
2019-04-06T10:48:08.843Z,47.23
2019-04-06T10:53:35.696Z,46.13
2019-04-06T10:56:07.615Z,45.93
2019-04-06T10:58:52.781Z,46.24
2019-04-06T11:01:24.538Z,45.71
2019-04-06T11:03:51.933Z,45.13
2019-04-06T11:06:20.844Z,45.03
2019-04-06T11:08:52.176Z,45.83
2019-04-06T11:11:25.226Z,44.13
2019-04-06T11:16:50.437Z,40.23
2019-04-06T11:19:33.442Z,39.67
2019-04-06T11:22:00.855Z,39.11
2019-04-06T11:24:28.285Z,38.86
2019-04-06T11:27:01.228Z,38.41
2019-04-06T11:29:30.016Z,38.82
2019-04-06T11:34:54.420Z,36.93
2019-04-06T11:37:22.174Z,37.33
2019-04-06T11:40:05.454Z,38.03
2019-04-06T11:42:38.528Z,38.15
2019-04-06T11:45:06.799Z,39.18
2019-04-06T11:47:37.092Z,39.77
2019-04-06T11:50:04.514Z,39.75
2019-04-06T11:52:37.409Z,40.55
2019-04-06T11:55:09.339Z,41.27
2019-04-06T11:57:39.743Z,41.72
2019-04-06T12:03:01.661Z,40.36
2019-04-06T12:05:43.959Z,40.44
2019-04-06T12:08:17.150Z,39.13
2019-04-06T12:10:46.514Z,38.51
2019-04-06T12:13:24.637Z,38.32
2019-04-06T12:18:53.863Z,36.25
2019-04-06T12:21:24.103Z,36.77
2019-04-06T12:24:05.506Z,37.72
2019-04-06T12:26:35.117Z,39.19
2019-04-06T12:29:07.997Z,39.61
2019-04-06T12:31:40.044Z,39.17
2019-04-06T12:34:08.263Z,38.82
2019-04-06T12:36:39.419Z,37.97
2019-04-06T12:39:09.792Z,37.68
2019-04-06T12:41:42.697Z,37.31
2019-04-06T12:44:26.882Z,37.58
2019-04-06T12:47:15.095Z,37.62
2019-04-06T12:52:56.452Z,36.77
2019-04-06T12:58:29.157Z,36.65
2019-04-06T13:01:00.067Z,37.64
2019-04-06T13:03:31.337Z,38.31
2019-04-06T13:06:01.596Z,38.25
2019-04-06T13:08:29.319Z,37.76
2019-04-06T13:11:02.437Z,37.27
2019-04-06T13:13:29.838Z,36.45
2019-04-06T13:16:02.757Z,36.25
2019-04-06T13:18:34.480Z,35.86
2019-04-06T13:21:02.258Z,35.99
2019-04-06T13:23:41.323Z,35.71
2019-04-06T13:29:04.661Z,33.79
2019-04-06T13:31:33.681Z,33.51
2019-04-06T13:34:06.638Z,32.77
2019-04-06T13:36:39.654Z,32.00
2019-04-06T13:39:13.724Z,31.55
2019-04-06T13:41:42.703Z,31.77
2019-04-06T13:44:12.560Z,31.98
2019-04-06T13:46:45.419Z,32.17
2019-04-06T13:49:18.368Z,31.28
2019-04-06T13:51:46.197Z,30.49
2019-04-06T13:54:13.371Z,29.97
2019-04-06T13:56:45.093Z,29.83
2019-04-06T13:59:23.323Z,30.96
2019-04-06T14:02:00.682Z,31.20
2019-04-06T14:04:29.943Z,30.56
2019-04-06T14:09:55.675Z,27.68
2019-04-06T14:12:43.807Z,27.89
2019-04-06T14:15:16.932Z,28.62
2019-04-06T14:17:49.947Z,28.81
2019-04-06T14:20:20.410Z,28.79
2019-04-06T14:25:45.753Z,27.53
2019-04-06T14:28:14.206Z,28.66
2019-04-06T14:30:56.572Z,29.86
2019-04-06T14:36:18.932Z,28.88
2019-04-06T14:38:56.641Z,28.61
2019-04-06T14:41:24.445Z,28.21
2019-04-06T14:44:09.243Z,28.12
2019-04-06T14:46:41.030Z,27.98
2019-04-06T14:49:27.183Z,27.82
2019-04-06T14:51:44.563Z,28.42
2019-04-06T14:54:12.470Z,28.98
2019-04-06T14:56:40.506Z,29.53
2019-04-06T15:02:16.895Z,30.02
2019-04-06T15:05:01.271Z,30.16
2019-04-06T15:07:28.455Z,29.28
2019-04-06T15:10:12.644Z,29.10
2019-04-06T15:12:39.998Z,29.05
2019-04-06T15:18:02.974Z,27.18
2019-04-06T15:23:36.731Z,27.92
2019-04-06T15:26:04.288Z,28.03
2019-04-06T15:31:48.620Z,27.57
2019-04-06T15:34:14.303Z,28.44
2019-04-06T15:36:57.775Z,29.44
2019-04-06T15:39:30.519Z,29.82
2019-04-06T15:41:58.393Z,30.56
2019-04-06T15:44:27.610Z,31.03
2019-04-06T15:49:55.784Z,31.05
2019-04-06T15:52:28.557Z,31.35
2019-04-06T15:54:56.775Z,31.81
2019-04-06T15:57:28.159Z,32.07
2019-04-06T16:00:14.496Z,32.18
2019-04-06T16:02:47.490Z,32.51
2019-04-06T16:05:15.850Z,32.78
2019-04-06T16:10:35.847Z,32.79
2019-04-06T16:13:04.227Z,33.29
2019-04-06T16:15:37.421Z,33.69
2019-04-06T16:18:05.163Z,34.44
2019-04-06T16:20:34.096Z,34.82
2019-04-06T16:23:05.298Z,34.94
2019-04-06T16:25:32.705Z,34.85
2019-04-06T16:28:05.774Z,34.94
2019-04-06T16:30:34.869Z,34.88
2019-04-06T16:33:05.402Z,34.99
2019-04-06T16:35:33.099Z,35.54
2019-04-06T16:40:55.090Z,35.32
2019-04-06T16:46:36.333Z,37.20
2019-04-06T16:49:05.650Z,37.69
2019-04-06T16:51:35.472Z,37.69
2019-04-06T16:54:07.439Z,37.86
2019-04-06T16:56:36.643Z,37.81
2019-04-06T16:59:09.870Z,38.14
2019-04-06T17:01:52.269Z,38.67
2019-04-06T17:04:34.352Z,39.13
2019-04-06T17:07:03.210Z,39.22
2019-04-06T17:09:34.803Z,39.33
2019-04-06T17:12:07.462Z,38.96
2019-04-06T17:17:46.929Z,39.00
2019-04-06T17:23:18.127Z,38.22
2019-04-06T17:25:51.162Z,38.94
2019-04-06T17:28:18.573Z,39.55
2019-04-06T17:30:47.902Z,39.96
2019-04-06T17:33:21.170Z,39.65
2019-04-06T17:35:48.610Z,39.29
2019-04-06T17:38:16.132Z,39.31
2019-04-06T17:40:43.550Z,39.26
2019-04-06T17:43:17.044Z,39.32
2019-04-06T17:45:47.175Z,39.22
2019-04-06T17:48:16.863Z,40.61
2019-04-06T17:50:43.897Z,41.39
2019-04-06T17:56:04.567Z,43.24
2019-04-06T18:01:42.681Z,43.92
2019-04-06T18:04:13.782Z,44.45
2019-04-06T18:06:52.972Z,44.90
2019-04-06T18:09:20.304Z,45.27
2019-04-06T18:14:40.627Z,46.17
2019-04-06T18:17:08.064Z,46.23
2019-04-06T18:19:36.016Z,46.63
2019-04-06T18:22:02.972Z,47.08
2019-04-06T18:24:30.655Z,47.23
2019-04-06T18:26:57.824Z,47.23
2019-04-06T18:29:25.397Z,47.24
2019-04-06T18:31:55.187Z,47.53
2019-04-06T18:34:22.865Z,47.57
2019-04-06T18:36:52.923Z,47.63
2019-04-06T18:39:20.431Z,47.63
2019-04-06T18:41:47.836Z,47.85
2019-04-06T18:44:15.324Z,47.98
2019-04-06T18:46:42.782Z,48.14
2019-04-06T18:49:10.171Z,48.23
2019-04-06T18:51:37.575Z,48.35
2019-04-06T18:54:05.295Z,48.59
2019-04-06T18:56:32.428Z,48.80
2019-04-06T18:58:59.902Z,48.61
2019-04-06T19:01:27.331Z,48.65
2019-04-06T19:03:55.552Z,48.77
2019-04-06T19:06:22.147Z,49.02
2019-04-06T19:08:49.561Z,48.96
2019-04-06T19:11:17.375Z,49.04
2019-04-06T19:13:44.485Z,49.09
2019-04-06T19:16:12.951Z,49.40
2019-04-06T19:18:40.379Z,49.36
2019-04-06T19:21:07.785Z,49.37
2019-04-06T19:23:35.191Z,49.50
2019-04-06T19:26:02.623Z,49.83
2019-04-06T19:28:30.057Z,49.93
2019-04-06T19:30:57.636Z,50.08
2019-04-06T19:33:25.908Z,50.16
2019-04-06T19:35:52.858Z,50.48
2019-04-06T19:38:19.900Z,50.66
2019-04-06T19:40:47.730Z,50.89
2019-04-06T19:43:17.248Z,51.00
2019-04-06T19:45:42.202Z,51.29
2019-04-06T19:48:09.686Z,51.58
2019-04-06T19:50:37.118Z,51.94
2019-04-06T19:53:04.524Z,52.01
2019-04-06T19:55:32.000Z,52.10
2019-04-06T19:57:59.793Z,52.38
2019-04-06T20:00:27.236Z,52.53
2019-04-06T20:02:54.363Z,52.53
2019-04-06T20:05:21.750Z,52.58
2019-04-06T20:07:49.186Z,52.77
2019-04-06T20:10:16.749Z,52.69
2019-04-06T20:12:44.040Z,52.87
2019-04-06T20:15:11.482Z,53.09
2019-04-06T20:17:39.072Z,53.41
2019-04-06T20:20:06.529Z,53.38
2019-04-06T20:22:34.122Z,53.21
2019-04-06T20:25:01.638Z,53.24
2019-04-06T20:27:29.058Z,52.96
2019-04-06T20:29:56.298Z,53.18
2019-04-06T20:32:23.406Z,53.38
2019-04-06T20:34:49.834Z,53.61
2019-04-06T20:37:17.074Z,53.56
2019-04-06T20:39:44.610Z,53.80
2019-04-06T20:42:11.657Z,54.01
2019-04-06T20:44:39.282Z,54.47
2019-04-06T20:47:06.855Z,54.67
2019-04-06T20:49:34.010Z,54.61
2019-04-06T20:52:01.883Z,54.96
2019-04-06T20:54:28.931Z,55.13
2019-04-06T20:56:58.266Z,55.44
2019-04-06T20:59:24.122Z,55.69
2019-04-06T21:01:51.393Z,55.59
2019-04-06T21:04:18.962Z,55.86
2019-04-06T21:06:46.401Z,55.75
2019-04-06T21:09:14.126Z,55.82
2019-04-06T21:11:41.434Z,55.93
2019-04-06T21:14:08.967Z,55.53
2019-04-06T21:16:36.226Z,55.46
2019-04-06T21:19:03.742Z,55.36
2019-04-06T21:21:31.509Z,55.33
2019-04-06T21:23:58.483Z,55.46
2019-04-06T21:26:26.287Z,55.26
2019-04-06T21:28:53.407Z,55.14
2019-04-06T21:31:20.887Z,55.45
2019-04-06T21:33:48.455Z,55.76
2019-04-06T21:36:16.268Z,56.25
2019-04-06T21:38:43.344Z,56.60
2019-04-06T21:41:11.342Z,56.71
2019-04-06T21:43:38.173Z,56.96
2019-04-06T21:46:05.648Z,56.83
2019-04-06T21:48:33.404Z,56.54
2019-04-06T21:51:00.404Z,55.90
2019-04-06T21:53:27.926Z,55.53
2019-04-06T21:56:02.669Z,54.96
2019-04-06T21:58:23.241Z,54.77
2019-04-06T22:00:50.210Z,54.82
2019-04-06T22:03:17.893Z,55.05
2019-04-06T22:05:45.487Z,55.30
2019-04-06T22:08:13.093Z,54.86
2019-04-06T22:10:40.063Z,54.42
2019-04-06T22:13:08.268Z,54.64
2019-04-06T22:15:35.126Z,54.11
2019-04-06T22:18:02.694Z,53.63
2019-04-06T22:20:30.078Z,53.42
2019-04-06T22:22:57.552Z,53.29
2019-04-06T22:25:25.241Z,53.10
2019-04-06T22:27:52.961Z,52.72
2019-04-06T22:30:19.987Z,53.00
2019-04-06T22:32:48.129Z,53.08
2019-04-06T22:35:14.897Z,52.46
2019-04-06T22:37:42.442Z,52.54
2019-04-06T22:40:09.798Z,53.14
2019-04-06T22:42:37.195Z,53.11
2019-04-06T22:45:05.443Z,53.43
2019-04-06T22:47:32.854Z,53.62
2019-04-06T22:50:02.713Z,53.60
2019-04-06T22:52:30.493Z,53.93
2019-04-06T22:54:57.359Z,54.24
2019-04-06T22:57:25.075Z,54.34
2019-04-06T22:59:52.252Z,54.18
2019-04-06T23:02:20.342Z,53.64
2019-04-06T23:04:51.215Z,53.41
2019-04-06T23:07:16.683Z,53.55
2019-04-06T23:09:43.980Z,53.85
2019-04-06T23:12:11.877Z,54.05
2019-04-06T23:14:39.316Z,54.22
2019-04-06T23:17:06.393Z,54.21
2019-04-06T23:19:33.871Z,53.82
2019-04-06T23:22:01.421Z,54.40
2019-04-06T23:24:29.794Z,54.92
2019-04-06T23:26:57.794Z,55.19
2019-04-06T23:29:24.610Z,55.03
2019-04-06T23:31:52.128Z,54.79
2019-04-06T23:34:19.413Z,54.83
2019-04-06T23:36:47.352Z,55.34
2019-04-06T23:39:14.273Z,54.96
2019-04-06T23:41:42.749Z,55.34
2019-04-06T23:44:09.869Z,55.41
2019-04-06T23:46:37.266Z,55.76
2019-04-06T23:49:04.671Z,56.17
2019-04-06T23:51:32.106Z,56.40
2019-04-06T23:53:59.661Z,56.29
2019-04-06T23:56:27.093Z,55.96
2019-04-06T23:58:54.595Z,56.14
